Time;durP1;ratioP1;P1;durP2;ratioP2;P2;SDS_P1;SDS_P2;PMS_P1;PMS_P2;Temp;Humidity;BMP_temperature;BMP_pressure;BME280_temperature;BME280_humidity;BME280_pressure;Samples;Min_cycle;Max_cycle;Signal;HPM_P1;HPM_P2
2023/04/23 00:02:33;;;;;;;;;;;;;;;20.33;40.16;95104.16;10473124;28;2692;-66
2023/04/23 00:07:34;;;;;;;;;;;;;;;20.32;39.97;95094.69;10467333;28;3012;-67
2023/04/23 00:12:34;;;;;;;;;;;;;;;20.32;40.24;95089.41;10468987;28;2552;-66
2023/04/23 00:17:35;;;;;;;;;;;;;;;20.31;40.06;95090.50;10484092;28;2617;-67
2023/04/23 00:22:35;;;;;;;;;;;;;;;20.30;40.14;95080.28;10476886;28;2726;-66
2023/04/23 00:27:35;;;;;;;;;;;;;;;20.29;40.04;95079.47;10460195;28;2584;-66
2023/04/23 00:32:36;;;;;;;;;;;;;;;20.29;40.40;95071.59;10469629;28;2286;-66
2023/04/23 00:37:36;;;;;;;;;;;;;;;20.30;40.18;95069.75;10470001;28;2608;-66
2023/04/23 00:42:48;;;;;;;;;;;;;;;20.28;40.05;95064.75;10477867;28;2640;-66
2023/04/23 00:47:48;;;;;;;;;;;;;;;20.28;40.04;95067.38;10451698;28;1960;-66
2023/04/23 00:52:49;;;;;;;;;;;;;;;20.28;40.28;95062.09;10465630;28;1964;-66
2023/04/23 00:57:49;;;;;;;;;;;;;;;20.27;40.24;95060.56;10463585;28;1975;-67
2023/04/23 01:02:51;;;;;;;;;;;;;;;20.28;40.03;95060.25;10469576;28;2655;-66
2023/04/23 01:07:52;;;;;;;;;;;;;;;20.25;40.15;95063.50;10465410;28;2624;-66
2023/04/23 01:12:53;;;;;;;;;;;;;;;20.26;40.24;95065.03;10463417;28;1959;-66
2023/04/23 01:17:57;;;;;;;;;;;;;;;20.25;40.33;95057.44;10468391;28;2519;-66
2023/04/23 01:22:57;;;;;;;;;;;;;;;20.26;40.16;95061.63;10467685;28;2611;-67
2023/04/23 01:27:58;;;;;;;;;;;;;;;20.25;40.07;95057.44;10453231;28;2677;-66
2023/04/23 01:32:59;;;;;;;;;;;;;;;20.24;40.08;95047.97;10461722;28;2505;-66
2023/04/23 01:37:59;;;;;;;;;;;;;;;20.24;40.22;95045.34;10457214;28;2598;-66
2023/04/23 01:43:00;;;;;;;;;;;;;;;20.24;40.04;95053.22;10482606;28;2667;-66
2023/04/23 01:48:01;;;;;;;;;;;;;;;20.23;40.23;95052.47;10481355;28;1925;-66
2023/04/23 01:53:02;;;;;;;;;;;;;;;20.23;40.20;95049.84;10479845;28;2580;-66
2023/04/23 01:58:02;;;;;;;;;;;;;;;20.23;40.13;95056.94;10469071;28;2597;-66
2023/04/23 02:03:02;;;;;;;;;;;;;;;20.22;40.21;95061.41;10477036;28;2649;-66
2023/04/23 02:08:03;;;;;;;;;;;;;;;20.21;40.41;95059.09;10467787;28;2581;-66
2023/04/23 02:13:03;;;;;;;;;;;;;;;20.23;40.25;95067.47;10463030;28;2538;-66
2023/04/23 02:18:12;;;;;;;;;;;;;;;20.21;39.96;95067.75;10465491;28;2688;-66
2023/04/23 02:23:12;;;;;;;;;;;;;;;20.21;40.09;95061.72;10470203;28;2536;-66
2023/04/23 02:28:14;;;;;;;;;;;;;;;20.21;40.22;95059.88;10463157;28;2599;-66
2023/04/23 02:33:14;;;;;;;;;;;;;;;20.21;40.11;95059.09;10474468;28;2594;-66
2023/04/23 02:38:15;;;;;;;;;;;;;;;20.19;40.11;95059.38;10467355;28;2575;-66
2023/04/23 02:43:17;;;;;;;;;;;;;;;20.20;40.12;95068.03;10488012;28;1932;-66
2023/04/23 02:48:17;;;;;;;;;;;;;;;20.20;40.16;95071.44;10482982;28;2625;-66
2023/04/23 02:53:17;;;;;;;;;;;;;;;20.21;40.16;95069.59;10464476;28;1963;-67
2023/04/23 02:58:18;;;;;;;;;;;;;;;20.20;39.94;95065.41;10474681;28;2809;-67
2023/04/23 03:03:19;;;;;;;;;;;;;;;20.20;40.13;95068.03;10463652;28;2627;-67
2023/04/23 03:08:20;;;;;;;;;;;;;;;20.18;40.16;95073.56;10473663;28;2550;-67
2023/04/23 03:13:20;;;;;;;;;;;;;;;20.18;40.10;95067.50;10463762;28;2977;-66
2023/04/23 03:18:20;;;;;;;;;;;;;;;20.18;40.08;95067.50;10468314;28;2623;-67
2023/04/23 03:23:21;;;;;;;;;;;;;;;20.19;40.09;95079.59;10461698;28;2595;-66
2023/04/23 03:28:21;;;;;;;;;;;;;;;20.18;40.26;95070.94;10469983;28;2612;-66
2023/04/23 03:33:21;;;;;;;;;;;;;;;20.18;40.08;95083.28;10467643;28;2642;-66
2023/04/23 03:38:31;;;;;;;;;;;;;;;20.17;40.15;95081.75;10462616;28;2561;-66
2023/04/23 03:43:32;;;;;;;;;;;;;;;20.18;40.12;95078.03;10463714;28;1991;-66
2023/04/23 03:48:32;;;;;;;;;;;;;;;20.17;40.07;95087.00;10465123;28;2337;-66
2023/04/23 03:53:33;;;;;;;;;;;;;;;20.17;40.14;95092.28;10465289;28;2662;-66
2023/04/23 03:58:34;;;;;;;;;;;;;;;20.16;40.23;95091.47;10461254;28;2593;-66
2023/04/23 04:03:40;;;;;;;;;;;;;;;20.17;40.19;95100.16;10468496;28;2602;-66
2023/04/23 04:08:40;;;;;;;;;;;;;;;20.16;40.12;95104.63;10462168;28;2024;-66
2023/04/23 04:13:51;;;;;;;;;;;;;;;20.19;40.24;95104.13;10467912;28;2572;-66
2023/04/23 04:18:51;;;;;;;;;;;;;;;20.21;40.41;95114.34;10467628;28;2728;-66
2023/04/23 04:23:52;;;;;;;;;;;;;;;20.24;40.33;95111.13;10462297;28;2597;-67
2023/04/23 04:28:53;;;;;;;;;;;;;;;20.26;40.12;95114.25;10464758;28;2667;-66
2023/04/23 04:33:54;;;;;;;;;;;;;;;20.29;40.05;95126.84;10471258;28;2571;-66
2023/04/23 04:38:57;;;;;;;;;;;;;;;20.31;40.29;95126.56;10463722;28;2557;-66
2023/04/23 04:43:57;;;;;;;;;;;;;;;20.33;40.11;95125.22;10466004;28;1938;-66
2023/04/23 04:48:58;;;;;;;;;;;;;;;20.36;40.21;95132.53;10464791;28;2583;-66
2023/04/23 04:54:00;;;;;;;;;;;;;;;20.40;40.00;95128.28;10460870;28;2504;-66
2023/04/23 04:59:01;;;;;;;;;;;;;;;20.43;40.17;95138.22;10469996;28;2586;-66
2023/04/23 05:04:02;;;;;;;;;;;;;;;20.48;39.96;95150.53;10463805;28;2031;-66
2023/04/23 05:09:03;;;;;;;;;;;;;;;20.49;39.87;95160.75;10462517;28;2555;-66
2023/04/23 05:14:04;;;;;;;;;;;;;;;20.53;40.08;95155.69;10466184;28;2548;-67
2023/04/23 05:19:05;;;;;;;;;;;;;;;20.54;40.00;95155.44;10470571;28;2608;-67
2023/04/23 05:24:05;;;;;;;;;;;;;;;20.56;40.00;95169.09;10476643;28;2684;-66
2023/04/23 05:29:06;;;;;;;;;;;;;;;20.60;39.95;95169.28;10467103;28;1987;-66
2023/04/23 05:34:07;;;;;;;;;;;;;;;20.62;39.88;95172.41;10476587;28;2580;-65
2023/04/23 05:39:08;;;;;;;;;;;;;;;20.62;40.00;95178.47;10475427;28;1921;-65
2023/04/23 05:44:08;;;;;;;;;;;;;;;20.63;39.92;95176.63;10483034;28;2107;-66
2023/04/23 05:49:09;;;;;;;;;;;;;;;20.65;39.78;95177.88;10481219;28;2534;-66
2023/04/23 05:54:11;;;;;;;;;;;;;;;20.65;39.80;95187.66;10468948;28;2583;-67
2023/04/23 05:59:12;;;;;;;;;;;;;;;20.64;39.76;95181.59;10472696;28;2612;-67
2023/04/23 06:04:13;;;;;;;;;;;;;;;20.63;39.82;95187.91;10460758;28;1979;-66
2023/04/23 06:09:13;;;;;;;;;;;;;;;20.64;39.88;95183.44;10466016;28;2540;-66
2023/04/23 06:14:14;;;;;;;;;;;;;;;20.63;39.88;95187.91;10474445;28;2538;-65
2023/04/23 06:19:15;;;;;;;;;;;;;;;20.62;39.75;95194.28;10476527;28;1964;-66
2023/04/23 06:24:17;;;;;;;;;;;;;;;20.61;39.97;95192.69;10480278;28;2602;-66
2023/04/23 06:29:18;;;;;;;;;;;;;;;20.60;39.82;95196.41;10483636;28;1933;-66
2023/04/23 06:34:19;;;;;;;;;;;;;;;20.60;39.96;95200.88;10474479;28;2539;-66
2023/04/23 06:39:21;;;;;;;;;;;;;;;20.59;39.81;95202.72;10479726;28;2545;-66
2023/04/23 06:44:22;;;;;;;;;;;;;;;20.58;39.94;95203.81;10483312;28;2685;-66
2023/04/23 06:49:23;;;;;;;;;;;;;;;20.57;39.68;95207.50;10484941;28;1961;-66
2023/04/23 06:54:23;;;;;;;;;;;;;;;20.57;39.93;95194.34;10478930;28;2612;-67
2023/04/23 06:59:24;;;;;;;;;;;;;;;20.55;39.98;95193.84;10476592;28;2670;-66
2023/04/23 07:04:25;;;;;;;;;;;;;;;20.55;39.85;95187.78;10474864;28;2673;-67
2023/04/23 07:09:26;;;;;;;;;;;;;;;20.54;39.85;95192.28;10480863;28;2647;-66
2023/04/23 07:14:26;;;;;;;;;;;;;;;20.54;40.07;95176.50;10458116;28;2663;-64
2023/04/23 07:19:27;;;;;;;;;;;;;;;20.55;39.86;95179.88;10473065;28;2674;-63
2023/04/23 07:24:27;;;;;;;;;;;;;;;20.54;40.35;95176.50;10469790;28;2600;-63
2023/04/23 07:29:27;;;;;;;;;;;;;;;20.54;40.44;95186.25;10473890;28;2524;-65
2023/04/23 07:34:28;;;;;;;;;;;;;;;20.55;40.85;95188.56;10484635;28;2570;-65
2023/04/23 07:39:28;;;;;;;;;;;;;;;20.55;41.01;95183.31;10485344;28;1928;-66
2023/04/23 07:44:28;;;;;;;;;;;;;;;20.59;41.18;95188.78;10456741;28;2551;-62
2023/04/23 07:49:30;;;;;;;;;;;;;;;20.62;41.48;95189.00;10492091;28;1969;-63
2023/04/23 07:54:31;;;;;;;;;;;;;;;20.63;41.53;95182.66;10474528;28;1929;-61
2023/04/23 07:59:31;;;;;;;;;;;;;;;20.66;41.88;95183.94;10477700;28;2595;-68
2023/04/23 08:04:32;;;;;;;;;;;;;;;20.67;41.55;95191.53;10475233;28;2574;-68
2023/04/23 08:09:33;;;;;;;;;;;;;;;20.67;41.74;95194.19;10461054;28;2612;-68
2023/04/23 08:14:33;;;;;;;;;;;;;;;20.65;41.68;95191.06;10467312;28;1952;-68
2023/04/23 08:19:34;;;;;;;;;;;;;;;20.66;41.63;95168.94;10474932;28;2648;-68
2023/04/23 08:24:34;;;;;;;;;;;;;;;20.66;41.88;95174.19;10466892;28;1960;-65
2023/04/23 08:29:35;;;;;;;;;;;;;;;20.67;42.10;95170.47;10478139;28;2532;-66
2023/04/23 08:34:35;;;;;;;;;;;;;;;20.67;41.98;95167.84;10476649;28;2594;-66
2023/04/23 08:39:36;;;;;;;;;;;;;;;20.68;42.48;95166.00;10456525;28;2821;-65
2023/04/23 08:44:36;;;;;;;;;;;;;;;20.69;42.38;95157.03;10493999;28;1952;-67
2023/04/23 08:49:37;;;;;;;;;;;;;;;20.71;42.43;95158.28;10472467;28;2645;-65
2023/04/23 08:54:37;;;;;;;;;;;;;;;20.73;42.93;95158.03;10499934;28;2662;-66
2023/04/23 08:59:37;;;;;;;;;;;;;;;20.76;42.90;95162.72;10488605;28;2637;-67
2023/04/23 09:04:38;;;;;;;;;;;;;;;20.73;42.85;95156.16;10484887;28;2624;-66
2023/04/23 09:09:39;;;;;;;;;;;;;;;20.72;42.90;95151.97;10469112;28;2680;-67
2023/04/23 09:14:39;;;;;;;;;;;;;;;20.74;43.15;95144.56;10489403;28;1896;-66
2023/04/23 09:19:40;;;;;;;;;;;;;;;20.73;43.39;95140.34;10471046;28;2545;-65
2023/04/23 09:24:42;;;;;;;;;;;;;;;20.73;43.68;95136.97;10482374;28;2701;-65
2023/04/23 09:29:43;;;;;;;;;;;;;;;20.74;43.75;95139.28;10484668;28;1960;-66
2023/04/23 09:34:44;;;;;;;;;;;;;;;20.72;43.92;95128.28;10466404;28;2033;-67
2023/04/23 09:39:44;;;;;;;;;;;;;;;20.70;43.97;95133.03;10466655;28;2604;-67
2023/04/23 09:44:44;;;;;;;;;;;;;;;20.70;44.39;95129.63;10468835;28;2534;-67
2023/04/23 09:49:46;;;;;;;;;;;;;;;20.68;44.37;95118.59;10483755;28;2003;-67
2023/04/23 09:54:47;;;;;;;;;;;;;;;20.69;44.59;95107.00;10449739;28;2533;-67
2023/04/23 09:59:48;;;;;;;;;;;;;;;20.66;44.45;95111.00;10448231;28;2701;-67
2023/04/23 10:04:50;;;;;;;;;;;;;;;20.66;44.28;95103.09;10467819;28;2571;-67
2023/04/23 10:09:50;;;;;;;;;;;;;;;20.64;44.64;95099.97;10473105;28;2047;-67
2023/04/23 10:14:53;;;;;;;;;;;;;;;20.64;44.75;95102.59;10470393;28;2564;-67
2023/04/23 10:19:53;;;;;;;;;;;;;;;20.64;45.17;95093.91;10482071;28;2159;-68
2023/04/23 10:24:54;;;;;;;;;;;;;;;20.64;45.10;95086.81;10489765;28;2659;-69
2023/04/23 10:30:01;;;;;;;;;;;;;;;20.64;45.07;95088.66;10473707;28;2571;-66
2023/04/23 10:35:02;;;;;;;;;;;;;;;20.63;45.23;95085.22;10458849;28;2683;-68
2023/04/23 10:40:11;;;;;;;;;;;;;;;20.63;45.36;95085.22;10479626;28;1994;-68
2023/04/23 10:45:13;;;;;;;;;;;;;;;20.64;45.20;95078.91;10440519;28;2563;-68
2023/04/23 10:50:17;;;;;;;;;;;;;;;20.65;45.17;95077.06;10467979;28;2689;-62
2023/04/23 10:55:18;;;;;;;;;;;;;;;20.63;44.92;95072.06;10462776;28;2529;-60
2023/04/23 11:00:19;;;;;;;;;;;;;;;20.63;44.84;95058.88;10485058;28;2534;-63
2023/04/23 11:05:20;;;;;;;;;;;;;;;20.63;44.94;95053.63;10457504;28;2598;-64
2023/04/23 11:10:21;;;;;;;;;;;;;;;20.63;45.49;95037.06;10478813;28;2517;-68
2023/04/23 11:15:21;;;;;;;;;;;;;;;20.55;44.13;95030.59;10479207;28;2580;-70
2023/04/23 11:20:23;;;;;;;;;;;;;;;20.53;44.24;95024.06;10474773;28;2542;-71
2023/04/23 11:25:25;;;;;;;;;;;;;;;20.49;44.36;95021.22;10471492;28;1956;-71
2023/04/23 11:30:29;;;;;;;;;;;;;;;20.50;44.49;95012.28;10468922;28;2608;-70
2023/04/23 11:35:38;;;;;;;;;;;;;;;20.50;44.24;95006.22;10452625;28;2566;-68
2023/04/23 11:40:39;;;;;;;;;;;;;;;20.52;44.25;95004.88;10458009;28;2607;-64
2023/04/23 11:45:39;;;;;;;;;;;;;;;20.54;44.47;95002.72;10473817;28;1996;-68
2023/04/23 11:50:39;;;;;;;;;;;;;;;20.55;44.89;94996.38;10468298;28;2601;-67
2023/04/23 11:55:42;;;;;;;;;;;;;;;20.62;46.16;94982.81;10477957;28;2042;-70
2023/04/23 12:00:43;;;;;;;;;;;;;;;20.64;46.12;94970.16;10461020;28;2608;-66
2023/04/23 12:05:44;;;;;;;;;;;;;;;20.66;46.45;94963.53;10474664;28;2577;-66
2023/04/23 12:11:00;;;;;;;;;;;;;;;20.67;46.57;94948.50;10484953;28;2539;-66
2023/04/23 12:16:02;;;;;;;;;;;;;;;20.68;46.50;94948.22;10463495;28;2569;-68
2023/04/23 12:21:06;;;;;;;;;;;;;;;20.69;46.71;94947.13;10489758;28;2082;-69
2023/04/23 12:26:10;;;;;;;;;;;;;;;20.69;46.41;94935.81;10484708;28;2573;-69
2023/04/23 12:31:17;;;;;;;;;;;;;;;20.70;46.59;94934.75;10472679;28;2031;-68
2023/04/23 12:36:17;;;;;;;;;;;;;;;20.69;46.58;94933.19;10484157;28;2017;-68
2023/04/23 12:41:18;;;;;;;;;;;;;;;20.69;46.99;94925.28;10474597;28;2549;-71
2023/04/23 12:46:18;;;;;;;;;;;;;;;20.72;46.84;94908.88;10471184;28;2663;-67
2023/04/23 12:51:18;;;;;;;;;;;;;;;20.71;46.02;94899.44;10470951;28;2996;-67
2023/04/23 12:56:19;;;;;;;;;;;;;;;20.68;46.41;94895.53;10475091;28;2011;-67
2023/04/23 13:01:19;;;;;;;;;;;;;;;20.67;45.21;94893.97;10473775;28;2592;-68
2023/04/23 13:06:20;;;;;;;;;;;;;;;20.67;46.53;94883.44;10470566;28;2581;-68
2023/04/23 13:11:21;;;;;;;;;;;;;;;20.65;45.72;94880.31;10448153;28;2493;-68
2023/04/23 13:16:21;;;;;;;;;;;;;;;20.64;45.56;94859.56;10454629;28;1980;-68
2023/04/23 13:21:21;;;;;;;;;;;;;;;20.60;44.42;94855.94;10464112;28;2596;-66
2023/04/23 13:26:22;;;;;;;;;;;;;;;20.54;44.27;94844.75;10457630;28;2609;-66
2023/04/23 13:31:22;;;;;;;;;;;;;;;20.54;43.88;94841.34;10465669;28;2593;-67
2023/04/23 13:36:25;;;;;;;;;;;;;;;20.52;44.41;94817.94;10464840;28;2065;-66
2023/04/23 13:41:25;;;;;;;;;;;;;;;20.51;43.85;94811.09;10473129;28;2592;-66
2023/04/23 13:46:26;;;;;;;;;;;;;;;20.52;44.20;94801.34;10464657;28;2564;-66
2023/04/23 13:51:31;;;;;;;;;;;;;;;20.55;44.27;94790.22;10467695;28;2605;-66
2023/04/23 13:56:32;;;;;;;;;;;;;;;20.56;44.15;94776.78;10472326;28;2589;-66
2023/04/23 14:01:34;;;;;;;;;;;;;;;20.61;44.54;94783.78;10471347;28;2576;-67
2023/04/23 14:06:35;;;;;;;;;;;;;;;20.64;44.40;94776.06;10476873;28;2542;-67
2023/04/23 14:11:38;;;;;;;;;;;;;;;20.68;43.93;94781.53;10489796;28;2576;-67
2023/04/23 14:16:38;;;;;;;;;;;;;;;20.72;43.69;94767.47;10475458;28;2548;-68
2023/04/23 14:21:40;;;;;;;;;;;;;;;20.77;43.63;94769.97;10473963;28;2574;-68
2023/04/23 14:26:43;;;;;;;;;;;;;;;20.81;43.73;94767.53;10452273;28;2603;-68
2023/04/23 14:31:45;;;;;;;;;;;;;;;20.83;43.16;94766.16;10477226;28;1981;-67
2023/04/23 14:36:47;;;;;;;;;;;;;;;20.83;43.62;94766.16;10473611;28;2552;-68
2023/04/23 14:41:48;;;;;;;;;;;;;;;20.88;43.45;94757.34;10473234;28;2680;-67
2023/04/23 14:46:49;;;;;;;;;;;;;;;20.91;43.46;94752.28;10476388;28;2615;-68
2023/04/23 14:51:53;;;;;;;;;;;;;;;20.90;43.12;94734.91;10472141;28;2598;-69
2023/04/23 14:56:54;;;;;;;;;;;;;;;20.92;44.04;94716.16;10464471;28;2089;-68
2023/04/23 15:01:55;;;;;;;;;;;;;;;20.96;44.24;94720.53;10473927;28;2057;-68
2023/04/23 15:06:56;;;;;;;;;;;;;;;21.00;44.19;94732.03;10457400;28;2565;-68
2023/04/23 15:11:57;;;;;;;;;;;;;;;21.00;44.18;94732.03;10464526;28;2632;-66
2023/04/23 15:16:57;;;;;;;;;;;;;;;21.03;44.32;94728.06;10463935;28;2610;-62
2023/04/23 15:21:58;;;;;;;;;;;;;;;21.04;44.30;94727.00;10470989;28;2591;-67
2023/04/23 15:27:00;;;;;;;;;;;;;;;21.05;44.61;94733.81;10479725;28;2817;-67
2023/04/23 15:32:00;;;;;;;;;;;;;;;21.03;44.81;94722.78;10475539;28;2556;-62
2023/04/23 15:37:01;;;;;;;;;;;;;;;21.04;44.42;94716.44;10474077;28;2676;-61
2023/04/23 15:42:02;;;;;;;;;;;;;;;21.05;44.23;94710.88;10475296;28;2550;-61
2023/04/23 15:47:02;;;;;;;;;;;;;;;21.05;44.21;94696.91;10476014;28;1955;-65
2023/04/23 15:52:03;;;;;;;;;;;;;;;21.06;44.24;94701.13;10470483;28;2560;-66
2023/04/23 15:57:03;;;;;;;;;;;;;;;21.04;44.12;94695.38;10475354;28;1981;-65
2023/04/23 16:02:03;;;;;;;;;;;;;;;21.05;44.07;94696.91;10472015;28;2675;-64
2023/04/23 16:07:05;;;;;;;;;;;;;;;21.02;44.04;94695.66;10461911;28;2540;-63
2023/04/23 16:12:05;;;;;;;;;;;;;;;21.00;44.11;94697.00;10469574;28;2594;-62
2023/04/23 16:17:06;;;;;;;;;;;;;;;20.97;44.74;94685.22;10457021;28;2574;-68
2023/04/23 16:22:06;;;;;;;;;;;;;;;20.94;44.61;94672.63;10472460;28;2533;-68
2023/04/23 16:27:09;;;;;;;;;;;;;;;20.96;44.82;94667.06;10475925;28;2700;-66
2023/04/23 16:32:10;;;;;;;;;;;;;;;20.95;44.68;94679.47;10468470;28;2577;-67
2023/04/23 16:37:14;;;;;;;;;;;;;;;20.96;44.62;94667.84;10485617;28;2550;-68
2023/04/23 16:42:15;;;;;;;;;;;;;;;20.95;44.94;94671.56;10480788;28;2550;-67
2023/04/23 16:47:15;;;;;;;;;;;;;;;20.97;44.89;94668.63;10482232;28;2661;-67
2023/04/23 16:52:16;;;;;;;;;;;;;;;20.97;44.86;94663.38;10480802;28;2567;-66
2023/04/23 16:57:16;;;;;;;;;;;;;;;20.97;44.73;94658.09;10483232;28;1944;-66
2023/04/23 17:02:17;;;;;;;;;;;;;;;20.94;45.19;94650.78;10469359;28;2625;-63
2023/04/23 17:07:17;;;;;;;;;;;;;;;20.91;46.12;94644.28;10482251;28;2600;-63
2023/04/23 17:12:18;;;;;;;;;;;;;;;20.92;46.17;94643.19;10483714;28;2669;-63
2023/04/23 17:17:18;;;;;;;;;;;;;;;20.91;46.37;94632.97;10492768;28;2651;-63
2023/04/23 17:22:19;;;;;;;;;;;;;;;20.92;46.49;94626.59;10470569;28;1856;-62
2023/04/23 17:27:21;;;;;;;;;;;;;;;20.91;46.41;94615.31;10483083;28;2916;-61
2023/04/23 17:32:22;;;;;;;;;;;;;;;20.91;46.47;94610.03;10461240;28;1997;-60
2023/04/23 17:37:23;;;;;;;;;;;;;;;20.91;46.67;94615.31;10482162;28;2956;-62
2023/04/23 17:42:23;;;;;;;;;;;;;;;20.91;46.67;94617.16;10488797;28;3050;-63
2023/04/23 17:47:24;;;;;;;;;;;;;;;20.92;46.63;94629.22;10479299;28;2972;-63
2023/04/23 17:52:25;;;;;;;;;;;;;;;20.91;46.58;94627.69;10479753;28;2899;-63
2023/04/23 17:57:35;;;;;;;;;;;;;;;20.89;46.75;94609.56;10476422;28;2855;-63
2023/04/23 18:02:38;;;;;;;;;;;;;;;20.90;46.81;94610.31;10481677;28;2865;-64
2023/04/23 18:07:49;;;;;;;;;;;;;;;20.90;46.77;94611.09;10477654;28;3082;-64
2023/04/23 18:12:50;;;;;;;;;;;;;;;20.91;46.72;94610.03;10470425;28;1997;-61
2023/04/23 18:17:53;;;;;;;;;;;;;;;20.92;46.78;94619.47;10465849;28;2916;-64
2023/04/23 18:22:53;;;;;;;;;;;;;;;20.91;46.86;94622.41;10485703;28;2898;-72
2023/04/23 18:27:54;;;;;;;;;;;;;;;20.89;46.89;94622.72;10488384;28;2978;-65
2023/04/23 18:33:01;;;;;;;;;;;;;;;20.86;46.81;94604.88;10467009;28;2852;-65
2023/04/23 18:38:08;;;;;;;;;;;;;;;20.84;47.08;94599.16;10472219;28;2969;-66
2023/04/23 18:43:08;;;;;;;;;;;;;;;20.83;47.37;94600.22;10486701;28;2215;-65
2023/04/23 18:48:19;;;;;;;;;;;;;;;20.83;47.33;94629.22;10456782;28;2931;-65
2023/04/23 18:53:20;;;;;;;;;;;;;;;20.83;47.28;94704.81;10460318;28;2813;-65
2023/04/23 18:58:21;;;;;;;;;;;;;;;20.84;47.16;94764.28;10486958;28;2103;-65
2023/04/23 19:03:22;;;;;;;;;;;;;;;20.81;47.32;94773.56;10454042;28;2849;-65
2023/04/23 19:08:27;;;;;;;;;;;;;;;20.80;47.60;94794.94;10459664;28;2940;-65
2023/04/23 19:13:27;;;;;;;;;;;;;;;20.80;47.67;94806.25;10467633;28;2819;-64
2023/04/23 19:18:27;;;;;;;;;;;;;;;20.80;47.83;94810.75;10458624;28;2968;-62
2023/04/23 19:23:31;;;;;;;;;;;;;;;20.79;47.84;94812.59;10471331;28;2890;-63
2023/04/23 19:28:32;;;;;;;;;;;;;;;20.80;47.98;94800.22;10473175;28;2920;-65
2023/04/23 19:33:33;;;;;;;;;;;;;;;20.79;47.76;94796.78;10478239;28;2996;-63
2023/04/23 19:38:35;;;;;;;;;;;;;;;20.79;47.80;94809.19;10464998;28;2127;-64
2023/04/23 19:43:36;;;;;;;;;;;;;;;20.79;47.81;94812.59;10476395;28;2000;-67
2023/04/23 19:48:36;;;;;;;;;;;;;;;20.77;47.52;94816.63;10474511;28;2888;-65
2023/04/23 19:53:37;;;;;;;;;;;;;;;20.79;47.62;94823.13;10470142;28;2067;-64
2023/04/23 19:58:38;;;;;;;;;;;;;;;20.76;47.75;94818.47;10469804;28;2868;-64
2023/04/23 20:03:38;;;;;;;;;;;;;;;20.77;47.26;94820.00;10471907;28;2953;-60
2023/04/23 20:09:03;;;;;;;;;;;;;;;20.74;47.25;94825.09;10463762;28;3040;-61
2023/04/23 20:14:03;;;;;;;;;;;;;;;20.72;47.14;94830.66;10467617;28;2824;-60
2023/04/23 20:19:09;;;;;;;;;;;;;;;20.72;47.04;94821.97;10471531;28;2805;-62
2023/04/23 20:24:10;;;;;;;;;;;;;;;20.71;47.30;94818.56;10465362;28;2946;-63
2023/04/23 20:29:10;;;;;;;;;;;;;;;20.69;47.26;94804.91;10466943;28;2031;-61
2023/04/23 20:34:11;;;;;;;;;;;;;;;20.70;47.07;94795.94;10475607;28;2036;-62
2023/04/23 20:39:13;;;;;;;;;;;;;;;20.69;47.09;94794.38;10468745;28;2971;-61
2023/04/23 20:44:13;;;;;;;;;;;;;;;20.69;47.01;94804.16;10459985;28;2989;-62
2023/04/23 20:49:15;;;;;;;;;;;;;;;20.67;46.96;94817.59;10448435;28;2073;-62
2023/04/23 20:54:16;;;;;;;;;;;;;;;20.68;46.85;94827.06;10460015;28;2852;-62
2023/04/23 20:59:17;;;;;;;;;;;;;;;20.67;46.68;94827.38;10473040;28;3234;-63
2023/04/23 21:04:17;;;;;;;;;;;;;;;20.65;46.61;94824.25;10457131;28;2871;-63
2023/04/23 21:09:19;;;;;;;;;;;;;;;20.64;46.32;94812.94;10466818;28;3036;-63
2023/04/23 21:14:20;;;;;;;;;;;;;;;20.65;46.16;94813.72;10466286;28;3023;-63
2023/04/23 21:19:21;;;;;;;;;;;;;;;20.63;46.19;94797.44;10476005;28;2955;-63
2023/04/23 21:24:22;;;;;;;;;;;;;;;20.61;46.20;94815.38;10464626;28;2955;-63
2023/04/23 21:29:24;;;;;;;;;;;;;;;20.60;45.85;94822.50;10472108;28;2875;-63
2023/04/23 21:34:26;;;;;;;;;;;;;;;20.58;45.62;94805.44;10477546;28;2804;-63
2023/04/23 21:39:26;;;;;;;;;;;;;;;20.59;45.59;94820.94;10447906;28;2828;-64
2023/04/23 21:44:27;;;;;;;;;;;;;;;20.58;45.64;94815.97;10459355;28;2917;-63
2023/04/23 21:49:27;;;;;;;;;;;;;;;20.58;45.50;94822.03;10471611;28;2894;-63
2023/04/23 21:54:27;;;;;;;;;;;;;;;20.57;45.66;94819.66;10464607;28;2908;-63
2023/04/23 21:59:30;;;;;;;;;;;;;;;20.56;45.44;94816.28;10462384;28;2174;-63
2023/04/23 22:04:30;;;;;;;;;;;;;;;20.56;45.65;94818.13;10470544;28;2835;-63
2023/04/23 22:09:31;;;;;;;;;;;;;;;20.55;45.43;94809.44;10478947;28;2029;-64
2023/04/23 22:14:31;;;;;;;;;;;;;;;20.55;45.55;94812.06;10478123;28;2035;-63
2023/04/23 22:19:32;;;;;;;;;;;;;;;20.55;45.34;94816.53;10491396;28;3003;-63
2023/04/23 22:24:32;;;;;;;;;;;;;;;20.54;45.54;94823.69;10434975;28;3279;-63
2023/04/23 22:29:33;;;;;;;;;;;;;;;20.55;45.42;94819.97;10475080;28;2829;-63
2023/04/23 22:34:34;;;;;;;;;;;;;;;20.53;45.41;94822.13;10467672;28;2880;-63
2023/04/23 22:39:35;;;;;;;;;;;;;;;20.54;45.35;94822.91;10471453;28;2057;-63
2023/04/23 22:44:36;;;;;;;;;;;;;;;20.52;45.24;94820.56;10456774;28;2896;-63
2023/04/23 22:49:37;;;;;;;;;;;;;;;20.52;45.28;94823.19;10474396;28;2856;-63
2023/04/23 22:54:39;;;;;;;;;;;;;;;20.51;45.09;94819.00;10466218;28;2985;-63
2023/04/23 22:59:41;;;;;;;;;;;;;;;20.50;45.01;94814.03;10464071;28;1977;-63
2023/04/23 23:04:41;;;;;;;;;;;;;;;20.50;44.96;94821.94;10460373;28;2888;-63
2023/04/23 23:09:41;;;;;;;;;;;;;;;20.50;45.13;94821.94;10484637;28;2891;-63
2023/04/23 23:14:43;;;;;;;;;;;;;;;20.49;45.09;94817.72;10459492;28;2823;-63
2023/04/23 23:19:43;;;;;;;;;;;;;;;20.48;44.95;94814.34;10470187;28;2984;-62
2023/04/23 23:24:45;;;;;;;;;;;;;;;20.47;44.86;94812.75;10462486;28;2065;-64
2023/04/23 23:29:46;;;;;;;;;;;;;;;20.48;44.94;94808.28;10471786;28;3101;-63
2023/04/23 23:34:46;;;;;;;;;;;;;;;20.47;44.91;94806.72;10467490;28;2043;-63
2023/04/23 23:39:46;;;;;;;;;;;;;;;20.47;44.90;94804.88;10473351;28;3236;-64
2023/04/23 23:44:47;;;;;;;;;;;;;;;20.46;44.91;94792.00;10468351;28;2187;-64
2023/04/23 23:49:48;;;;;;;;;;;;;;;20.46;45.03;94794.63;10462959;28;2815;-64
2023/04/23 23:54:48;;;;;;;;;;;;;;;20.45;44.89;94783.31;10470972;28;2071;-64
2023/04/23 23:59:49;;;;;;;;;;;;;;;20.42;44.64;94775.25;10460996;28;2949;-64
